createdAt,value
2018-07-15T00:01:55.408Z,12.00
2018-07-15T00:04:29.625Z,11.90
2018-07-15T00:07:04.829Z,12.00
2018-07-15T00:09:39.024Z,12.00
2018-07-15T00:14:46.945Z,12.00
2018-07-15T00:19:54.885Z,12.10
2018-07-15T00:22:29.053Z,12.20
2018-07-15T00:25:05.651Z,12.20
2018-07-15T00:27:39.833Z,12.30
2018-07-15T00:30:14.045Z,12.30
2018-07-15T00:32:49.272Z,12.30
2018-07-15T00:35:23.552Z,12.30
2018-07-15T00:37:57.747Z,12.40
2018-07-15T00:40:31.977Z,12.40
2018-07-15T00:43:06.173Z,12.50
2018-07-15T00:45:40.369Z,12.50
2018-07-15T00:50:49.317Z,12.60
2018-07-15T00:55:57.206Z,12.70
2018-07-15T00:58:31.345Z,12.60
2018-07-15T01:03:40.272Z,12.60
2018-07-15T01:11:21.943Z,12.60
2018-07-15T01:13:56.105Z,12.60
2018-07-15T01:19:05.084Z,12.60
2018-07-15T01:21:39.280Z,12.70
2018-07-15T01:24:13.513Z,12.60
2018-07-15T01:26:47.926Z,12.70
2018-07-15T01:29:22.076Z,12.70
2018-07-15T01:31:56.258Z,12.80
2018-07-15T01:34:30.480Z,12.80
2018-07-15T01:37:04.714Z,12.90
2018-07-15T01:39:38.882Z,13.00
2018-07-15T01:42:14.153Z,13.10
2018-07-15T01:44:48.507Z,13.10
2018-07-15T01:47:23.758Z,13.20
2018-07-15T01:49:58.480Z,13.30
2018-07-15T01:52:32.676Z,13.40
2018-07-15T01:55:06.886Z,13.40
2018-07-15T01:57:42.700Z,13.50
2018-07-15T02:00:17.453Z,13.50
2018-07-15T02:02:52.314Z,13.60
2018-07-15T02:08:00.179Z,13.80
2018-07-15T02:10:35.898Z,13.80
2018-07-15T02:13:10.607Z,13.90
2018-07-15T02:15:45.288Z,14.00
2018-07-15T02:20:54.350Z,14.10
2018-07-15T02:23:29.572Z,14.20
2018-07-15T02:28:39.665Z,14.30
2018-07-15T02:31:14.362Z,14.40
2018-07-15T02:33:49.085Z,14.40
2018-07-15T02:38:58.056Z,14.40
2018-07-15T02:41:32.773Z,14.50
2018-07-15T02:44:07.915Z,14.50
2018-07-15T02:46:43.669Z,14.50
2018-07-15T02:49:18.427Z,14.50
2018-07-15T02:51:53.174Z,14.50
2018-07-15T02:54:27.932Z,14.50
2018-07-15T02:57:03.671Z,14.50
2018-07-15T03:02:12.695Z,14.50
2018-07-15T03:04:47.464Z,14.50
2018-07-15T03:07:22.158Z,14.50
2018-07-15T03:12:31.160Z,14.60
2018-07-15T03:15:05.952Z,14.60
2018-07-15T03:17:41.678Z,14.60
2018-07-15T03:22:50.685Z,14.60
2018-07-15T03:25:25.448Z,14.60
2018-07-15T03:30:34.424Z,14.80
2018-07-15T03:33:09.160Z,15.10
2018-07-15T03:35:43.965Z,15.50
2018-07-15T03:38:18.728Z,15.90
2018-07-15T03:40:53.500Z,16.30
2018-07-15T03:43:28.268Z,16.60
2018-07-15T03:46:03.010Z,17.00
2018-07-15T03:48:44.718Z,17.40
2018-07-15T03:51:19.443Z,17.80
2018-07-15T03:53:54.236Z,18.10
2018-07-15T03:56:29.992Z,18.50
2018-07-15T03:59:04.715Z,18.80
2018-07-15T04:01:39.469Z,19.10
2018-07-15T04:04:14.184Z,19.50
2018-07-15T04:06:48.939Z,19.80
2018-07-15T04:11:57.968Z,20.30
2018-07-15T04:17:07.700Z,21.10
2018-07-15T04:19:42.438Z,21.40
2018-07-15T04:22:17.414Z,21.70
2018-07-15T04:24:52.157Z,22.00
2018-07-15T04:27:27.897Z,22.40
2018-07-15T04:30:02.624Z,22.70
2018-07-15T04:32:37.378Z,23.20
2018-07-15T04:35:12.052Z,23.50
2018-07-15T04:40:21.336Z,24.40
2018-07-15T04:42:55.830Z,24.80
2018-07-15T04:45:30.246Z,25.30
2018-07-15T04:48:05.745Z,25.70
2018-07-15T04:50:40.139Z,26.10
2018-07-15T04:53:14.583Z,26.30
2018-07-15T04:55:48.999Z,26.40
2018-07-15T04:58:23.466Z,26.70
2018-07-15T05:00:57.899Z,26.50
2018-07-15T05:03:32.347Z,26.50
2018-07-15T05:06:06.796Z,26.50
2018-07-15T05:11:16.237Z,26.30
2018-07-15T05:13:50.828Z,26.30
2018-07-15T05:16:25.245Z,26.20
2018-07-15T05:19:00.912Z,26.00
2018-07-15T05:21:35.277Z,25.60
2018-07-15T05:24:09.813Z,25.20
2018-07-15T05:26:45.234Z,24.80
2018-07-15T05:29:19.713Z,24.40
2018-07-15T05:31:54.137Z,23.90
2018-07-15T05:34:28.629Z,23.70
2018-07-15T05:37:03.079Z,23.20
2018-07-15T05:39:37.604Z,22.90
2018-07-15T05:42:12.048Z,23.00
2018-07-15T05:44:46.500Z,23.20
2018-07-15T05:47:20.938Z,23.70
2018-07-15T05:49:55.360Z,24.20
2018-07-15T05:52:30.818Z,24.80
2018-07-15T05:55:06.368Z,25.40
2018-07-15T05:57:40.822Z,25.50
2018-07-15T06:00:15.247Z,25.60
2018-07-15T06:02:49.748Z,25.60
2018-07-15T06:07:58.165Z,25.20
2018-07-15T06:10:32.701Z,24.60
2018-07-15T06:13:07.313Z,23.50
2018-07-15T06:15:42.051Z,22.50
2018-07-15T06:18:16.731Z,21.70
2018-07-15T06:20:51.423Z,21.10
2018-07-15T06:23:26.180Z,20.50
2018-07-15T06:26:00.938Z,20.10
2018-07-15T06:28:35.613Z,20.80
2018-07-15T06:31:10.339Z,22.00
2018-07-15T06:33:44.756Z,23.00
2018-07-15T06:36:19.200Z,24.10
2018-07-15T06:38:53.623Z,25.00
2018-07-15T06:41:28.188Z,25.50
2018-07-15T06:44:02.627Z,26.30
2018-07-15T06:46:38.089Z,25.70
2018-07-15T06:49:13.571Z,25.20
2018-07-15T06:51:49.187Z,24.90
2018-07-15T06:54:24.641Z,25.30
2018-07-15T06:56:59.064Z,25.80
2018-07-15T06:59:33.444Z,25.20
2018-07-15T07:02:07.871Z,24.80
2018-07-15T07:04:42.569Z,24.80
2018-07-15T07:07:17.142Z,25.30
2018-07-15T07:09:52.732Z,25.30
2018-07-15T07:12:28.211Z,25.20
2018-07-15T07:15:02.623Z,25.30
2018-07-15T07:17:37.148Z,25.50
2018-07-15T07:20:11.561Z,25.50
2018-07-15T07:22:46.045Z,24.80
2018-07-15T07:30:28.563Z,24.80
2018-07-15T07:33:03.009Z,24.60
2018-07-15T07:35:37.434Z,24.40
2018-07-15T07:38:12.855Z,24.20
2018-07-15T07:40:49.136Z,24.50
2018-07-15T07:43:40.863Z,25.00
2018-07-15T07:46:24.820Z,24.60
2018-07-15T07:49:00.741Z,24.30
2018-07-15T07:51:36.529Z,23.90
2018-07-15T07:54:11.260Z,23.50
2018-07-15T07:56:45.984Z,23.20
2018-07-15T07:59:20.765Z,23.40
2018-07-15T08:01:55.465Z,23.70
2018-07-15T08:04:30.180Z,24.00
2018-07-15T08:07:05.069Z,24.80
2018-07-15T08:09:40.111Z,24.80
2018-07-15T08:14:48.972Z,24.70
2018-07-15T08:17:23.448Z,24.70
2018-07-15T08:19:58.155Z,24.20
2018-07-15T08:22:32.898Z,23.80
2018-07-15T08:25:08.220Z,23.70
2018-07-15T08:27:43.076Z,24.00
2018-07-15T08:32:57.603Z,25.50
2018-07-15T08:35:32.338Z,25.70
2018-07-15T08:38:08.134Z,26.10
2018-07-15T08:40:42.626Z,26.80
2018-07-15T08:43:17.201Z,26.70
2018-07-15T08:45:52.682Z,26.00
2018-07-15T08:48:28.496Z,25.30
2018-07-15T08:51:03.841Z,25.00
2018-07-15T08:53:41.534Z,24.50
2018-07-15T08:56:22.731Z,24.00
2018-07-15T08:58:57.501Z,23.80
2018-07-15T09:04:09.202Z,23.10
2018-07-15T09:12:00.984Z,23.20
2018-07-15T09:14:36.001Z,23.40
2018-07-15T09:17:14.681Z,24.10
2018-07-15T09:19:49.691Z,24.10
2018-07-15T09:22:26.356Z,24.10
2018-07-15T09:25:02.492Z,24.30
2018-07-15T09:27:40.304Z,24.30
2018-07-15T09:30:20.414Z,24.20
2018-07-15T09:32:57.505Z,24.20
2018-07-15T09:38:15.126Z,24.50
2018-07-15T09:40:55.481Z,24.50
2018-07-15T09:43:31.476Z,24.30
2018-07-15T09:46:10.900Z,23.90
2018-07-15T09:51:31.311Z,25.10
2018-07-15T09:56:44.020Z,25.50
2018-07-15T09:59:29.615Z,25.50
2018-07-15T10:02:05.830Z,24.90
2018-07-15T10:04:43.257Z,24.90
2018-07-15T10:07:22.868Z,25.30
2018-07-15T10:10:02.404Z,25.10
2018-07-15T10:12:43.284Z,25.80
2018-07-15T10:15:22.566Z,25.40
2018-07-15T10:18:01.189Z,25.30
2018-07-15T10:20:41.176Z,25.40
2018-07-15T10:23:18.417Z,25.80
2018-07-15T10:25:53.165Z,25.60
2018-07-15T10:28:31.221Z,25.90
2018-07-15T10:33:44.996Z,26.40
2018-07-15T10:36:25.327Z,26.30
2018-07-15T10:39:04.738Z,26.50
2018-07-15T10:41:43.823Z,26.80
2018-07-15T10:44:22.038Z,26.50
2018-07-15T10:46:57.182Z,26.50
2018-07-15T10:49:33.957Z,26.00
2018-07-15T10:52:08.441Z,25.90
2018-07-15T10:54:50.748Z,26.40
2018-07-15T11:00:02.779Z,25.80
2018-07-15T11:02:37.407Z,26.10
2018-07-15T11:05:14.499Z,26.10
2018-07-15T11:07:55.759Z,25.60
2018-07-15T11:10:33.941Z,25.70
2018-07-15T11:13:12.219Z,25.80
2018-07-15T11:15:48.468Z,25.80
2018-07-15T11:18:22.968Z,25.50
2018-07-15T11:21:00.788Z,25.80
2018-07-15T11:23:38.752Z,25.60
2018-07-15T11:26:13.304Z,25.40
2018-07-15T11:28:48.446Z,25.20
2018-07-15T11:31:23.162Z,25.10
2018-07-15T11:33:58.229Z,24.90
2018-07-15T11:36:33.015Z,25.20
2018-07-15T11:39:08.805Z,25.40
2018-07-15T11:41:43.626Z,25.40
2018-07-15T11:44:19.401Z,25.60
2018-07-15T11:46:54.098Z,25.70
2018-07-15T11:49:28.898Z,25.70
2018-07-15T11:52:04.714Z,25.70
2018-07-15T11:54:40.610Z,25.50
2018-07-15T11:57:15.524Z,25.50
2018-07-15T11:59:50.270Z,25.40
2018-07-15T12:02:25.009Z,25.00
2018-07-15T12:05:00.849Z,25.00
2018-07-15T12:07:36.860Z,25.00
2018-07-15T12:10:11.827Z,25.00
2018-07-15T12:12:46.529Z,25.10
2018-07-15T12:17:55.522Z,25.10
2018-07-15T12:20:31.309Z,25.10
2018-07-15T12:23:06.323Z,24.80
2018-07-15T12:25:42.146Z,24.80
2018-07-15T12:28:16.960Z,24.70
2018-07-15T12:30:51.858Z,24.60
2018-07-15T12:36:08.302Z,24.60
2018-07-15T12:39:09.231Z,24.40
2018-07-15T12:45:16.170Z,24.40
2018-07-15T12:47:52.119Z,24.50
2018-07-15T12:50:26.837Z,24.40
2018-07-15T12:53:01.629Z,24.50
2018-07-15T12:55:36.446Z,24.30
2018-07-15T12:58:11.260Z,24.30
2018-07-15T13:00:45.996Z,24.30
2018-07-15T13:04:01.618Z,24.20
2018-07-15T13:06:58.038Z,24.20
2018-07-15T13:16:07.317Z,24.00
2018-07-15T13:18:57.866Z,24.00
2018-07-15T13:25:01.591Z,23.90
2018-07-15T13:27:51.697Z,23.70
2018-07-15T13:36:49.794Z,23.90
2018-07-15T13:39:37.515Z,23.90
2018-07-15T13:42:27.090Z,23.80
2018-07-15T13:47:37.322Z,23.90
2018-07-15T13:50:12.047Z,23.80
2018-07-15T13:52:46.803Z,23.70
2018-07-15T13:55:21.547Z,23.70
2018-07-15T13:57:56.308Z,23.70
2018-07-15T14:00:31.052Z,23.60
2018-07-15T14:03:05.898Z,23.60
2018-07-15T14:05:40.627Z,23.50
2018-07-15T14:08:15.355Z,23.60
2018-07-15T14:10:51.048Z,23.60
2018-07-15T14:13:25.820Z,23.60
2018-07-15T14:16:00.547Z,23.60
2018-07-15T14:18:36.315Z,23.60
2018-07-15T14:21:11.159Z,23.70
2018-07-15T14:23:45.889Z,23.60
2018-07-15T14:26:21.648Z,23.70
2018-07-15T14:28:57.368Z,23.60
2018-07-15T14:31:32.044Z,23.50
2018-07-15T14:34:07.905Z,23.40
2018-07-15T14:36:42.626Z,23.40
2018-07-15T14:39:18.632Z,23.40
2018-07-15T14:41:53.384Z,23.30
2018-07-15T14:44:28.147Z,23.40
2018-07-15T14:47:02.969Z,23.50
2018-07-15T14:49:37.718Z,23.40
2018-07-15T14:52:12.477Z,23.50
2018-07-15T14:54:47.249Z,23.50
2018-07-15T14:57:21.968Z,23.50
2018-07-15T14:59:57.690Z,23.50
2018-07-15T15:02:33.450Z,23.50
2018-07-15T15:05:08.734Z,23.50
2018-07-15T15:07:43.463Z,23.50
2018-07-15T15:10:18.212Z,23.40
2018-07-15T15:12:52.948Z,23.40
2018-07-15T15:15:27.717Z,23.30
2018-07-15T15:18:03.493Z,23.20
2018-07-15T15:20:38.262Z,23.20
2018-07-15T15:25:48.340Z,23.10
2018-07-15T15:28:24.215Z,23.20
2018-07-15T15:31:00.042Z,23.20
2018-07-15T15:33:34.758Z,23.30
2018-07-15T15:36:10.484Z,23.20
2018-07-15T15:38:45.234Z,23.20
2018-07-15T15:41:20.051Z,23.10
2018-07-15T15:43:54.759Z,23.10
2018-07-15T15:46:29.524Z,22.90
2018-07-15T15:49:04.298Z,22.90
2018-07-15T15:51:39.057Z,22.90
2018-07-15T15:54:22.372Z,22.90
2018-07-15T15:57:11.137Z,22.90
2018-07-15T15:59:51.622Z,22.90
2018-07-15T16:02:26.509Z,21.20
2018-07-15T16:05:14.152Z,22.90
2018-07-15T16:08:03.754Z,22.80
2018-07-15T16:16:46.743Z,22.70
2018-07-15T16:19:21.764Z,22.70
2018-07-15T16:21:56.456Z,22.70
2018-07-15T16:24:31.665Z,22.60
2018-07-15T16:27:06.963Z,22.60
2018-07-15T16:29:42.807Z,22.60
2018-07-15T16:32:17.506Z,22.60
2018-07-15T16:37:27.601Z,22.60
2018-07-15T16:40:02.392Z,22.50
2018-07-15T16:42:37.069Z,22.50
2018-07-15T16:45:11.851Z,22.50
2018-07-15T16:47:46.535Z,22.50
2018-07-15T16:50:29.667Z,22.50
2018-07-15T16:53:04.771Z,22.40
2018-07-15T16:55:56.301Z,22.40
2018-07-15T16:58:50.393Z,22.40
2018-07-15T17:01:25.247Z,22.40
2018-07-15T17:04:01.005Z,22.40
2018-07-15T17:06:35.724Z,22.40
2018-07-15T17:09:10.504Z,22.30
2018-07-15T17:11:45.209Z,22.30
2018-07-15T17:14:20.026Z,22.30
2018-07-15T17:16:54.887Z,22.30
2018-07-15T17:19:29.621Z,22.30
2018-07-15T17:22:04.393Z,22.20
2018-07-15T17:24:39.135Z,22.20
2018-07-15T17:29:48.141Z,22.10
2018-07-15T17:32:22.897Z,22.00
2018-07-15T17:37:34.193Z,22.00
2018-07-15T17:40:08.936Z,22.00
2018-07-15T17:42:43.641Z,22.00
2018-07-15T17:45:18.631Z,21.90
2018-07-15T17:47:53.455Z,21.90
2018-07-15T17:50:28.175Z,21.80
2018-07-15T17:53:02.917Z,21.80
2018-07-15T17:55:37.630Z,21.70
2018-07-15T17:58:12.459Z,21.70
2018-07-15T18:00:47.178Z,21.70
2018-07-15T18:03:22.908Z,21.60
2018-07-15T18:05:58.656Z,21.60
2018-07-15T18:08:33.468Z,21.50
2018-07-15T18:11:08.200Z,21.50
2018-07-15T18:13:42.979Z,21.40
2018-07-15T18:16:17.741Z,21.40
2018-07-15T18:18:52.544Z,21.40
2018-07-15T18:21:28.328Z,21.30
2018-07-15T18:24:03.253Z,21.30
2018-07-15T18:29:12.221Z,21.10
2018-07-15T18:31:46.936Z,21.10
2018-07-15T18:34:21.712Z,21.10
2018-07-15T18:36:56.456Z,21.00
2018-07-15T18:39:31.180Z,20.90
2018-07-15T18:42:06.016Z,20.90
2018-07-15T18:44:40.777Z,20.70
2018-07-15T18:47:15.474Z,20.70
2018-07-15T18:52:24.676Z,20.50
2018-07-15T18:54:59.418Z,20.40
2018-07-15T18:57:34.180Z,20.30
2018-07-15T19:02:43.544Z,20.20
2018-07-15T19:05:18.310Z,20.10
2018-07-15T19:07:54.097Z,20.00
2018-07-15T19:10:28.808Z,19.90
2018-07-15T19:13:03.510Z,19.70
2018-07-15T19:15:39.287Z,19.60
2018-07-15T19:18:14.177Z,19.40
2018-07-15T19:20:48.900Z,19.30
2018-07-15T19:23:23.662Z,19.30
2018-07-15T19:25:58.404Z,19.10
2018-07-15T19:28:33.160Z,19.10
2018-07-15T19:31:07.881Z,18.90
2018-07-15T19:33:42.955Z,18.90
2018-07-15T19:36:17.873Z,18.70
2018-07-15T19:38:53.611Z,18.60
2018-07-15T19:41:28.479Z,18.40
2018-07-15T19:44:03.219Z,18.30
2018-07-15T19:46:37.997Z,18.10
2018-07-15T19:49:12.717Z,17.90
2018-07-15T19:51:48.484Z,17.90
2018-07-15T19:54:24.272Z,17.70
2018-07-15T19:56:59.082Z,17.60
2018-07-15T19:59:34.988Z,17.50
2018-07-15T20:02:10.745Z,17.50
2018-07-15T20:04:45.487Z,17.30
2018-07-15T20:07:20.273Z,17.20
2018-07-15T20:15:03.495Z,17.00
2018-07-15T20:17:38.279Z,16.90
2018-07-15T20:20:13.313Z,16.80
2018-07-15T20:22:49.057Z,16.70
2018-07-15T20:25:23.787Z,16.70
2018-07-15T20:27:59.521Z,16.60
2018-07-15T20:33:08.564Z,16.50
2018-07-15T20:38:18.548Z,16.40
2018-07-15T20:40:53.269Z,16.40
2018-07-15T20:43:29.040Z,16.30
2018-07-15T20:46:04.760Z,16.20
2018-07-15T20:51:13.728Z,16.10
2018-07-15T20:53:48.500Z,16.00
2018-07-15T20:56:24.303Z,15.90
2018-07-15T21:01:34.475Z,15.80
2018-07-15T21:04:09.221Z,15.80
2018-07-15T21:06:43.928Z,15.70
2018-07-15T21:09:18.666Z,15.70
2018-07-15T21:11:53.385Z,15.70
2018-07-15T21:14:28.096Z,15.70
2018-07-15T21:17:02.831Z,15.60
2018-07-15T21:19:37.574Z,15.60
2018-07-15T21:22:12.340Z,15.60
2018-07-15T21:27:21.312Z,15.50
2018-07-15T21:29:56.024Z,15.40
2018-07-15T21:32:31.752Z,15.40
2018-07-15T21:35:06.484Z,15.40
2018-07-15T21:40:15.447Z,15.30
2018-07-15T21:42:50.228Z,15.30
2018-07-15T21:45:25.914Z,15.30
2018-07-15T21:48:00.639Z,15.30
2018-07-15T21:50:35.475Z,15.20
2018-07-15T21:53:10.244Z,15.20
2018-07-15T21:55:44.951Z,15.10
2018-07-15T21:58:19.701Z,15.10
2018-07-15T22:00:55.500Z,15.00
2018-07-15T22:03:30.244Z,15.00
2018-07-15T22:06:04.960Z,15.00
2018-07-15T22:09:53.205Z,14.90
2018-07-15T22:15:02.157Z,14.90
2018-07-15T22:17:49.092Z,14.80
2018-07-15T22:20:43.122Z,14.80
2018-07-15T22:23:17.941Z,14.80
2018-07-15T22:25:53.814Z,14.70
2018-07-15T22:28:28.724Z,14.60
2018-07-15T22:31:03.471Z,14.60
2018-07-15T22:33:38.453Z,14.60
2018-07-15T22:36:13.215Z,14.60
2018-07-15T22:41:22.352Z,14.50
2018-07-15T22:43:57.231Z,14.40
2018-07-15T22:46:33.071Z,14.40
2018-07-15T22:49:08.934Z,14.30
2018-07-15T22:51:44.750Z,14.30
2018-07-15T22:54:19.569Z,14.30
2018-07-15T22:56:53.890Z,14.30
2018-07-15T22:59:29.108Z,14.20
2018-07-15T23:02:04.992Z,14.20
2018-07-15T23:05:55.208Z,14.20
2018-07-15T23:08:32.127Z,14.20
2018-07-15T23:11:06.448Z,14.10
2018-07-15T23:13:41.285Z,14.10
2018-07-15T23:16:16.335Z,14.10
2018-07-15T23:18:52.270Z,14.10
2018-07-15T23:21:28.224Z,14.10
2018-07-15T23:24:03.026Z,14.10
2018-07-15T23:26:37.873Z,14.10
2018-07-15T23:29:12.645Z,14.00
2018-07-15T23:31:49.224Z,14.00
2018-07-15T23:34:25.052Z,13.90
2018-07-15T23:36:59.823Z,13.90
2018-07-15T23:39:34.581Z,13.90
2018-07-15T23:42:08.784Z,13.90
2018-07-15T23:44:44.005Z,13.90
2018-07-15T23:47:18.219Z,13.80
2018-07-15T23:49:52.504Z,13.80
2018-07-15T23:52:27.057Z,13.70
2018-07-15T23:55:01.800Z,13.70
2018-07-15T23:57:37.876Z,13.70
